createdAt,value
2023-03-05T00:00:28.629Z,3.39
2023-03-05T00:03:31.476Z,3.29
2023-03-05T00:06:34.214Z,3.12
2023-03-05T00:09:37.057Z,3.15
2023-03-05T00:12:39.601Z,3.15
2023-03-05T00:15:43.047Z,3.17
2023-03-05T00:18:46.384Z,3.14
2023-03-05T00:21:49.212Z,3.06
2023-03-05T00:24:52.403Z,3.15
2023-03-05T00:27:54.895Z,3.10
2023-03-05T00:31:00.991Z,3.08
2023-03-05T00:34:13.285Z,3.01
2023-03-05T00:37:16.728Z,3.13
2023-03-05T00:40:19.476Z,3.17
2023-03-05T00:43:22.072Z,3.10
2023-03-05T00:46:27.331Z,3.04
2023-03-05T00:49:30.514Z,3.08
2023-03-05T00:52:33.926Z,3.06
2023-03-05T00:55:36.554Z,3.11
2023-03-05T00:58:39.743Z,3.02
2023-03-05T01:01:42.118Z,3.02
2023-03-05T01:04:47.068Z,2.98
2023-03-05T01:07:55.051Z,3.04
2023-03-05T01:10:57.925Z,2.96
2023-03-05T01:14:00.317Z,2.95
2023-03-05T01:17:04.459Z,3.04
2023-03-05T01:20:07.865Z,3.07
2023-03-05T01:23:10.525Z,3.20
2023-03-05T01:26:13.660Z,3.25
2023-03-05T01:29:16.456Z,3.31
2023-03-05T01:32:18.828Z,3.33
2023-03-05T01:35:24.449Z,3.20
2023-03-05T01:38:27.248Z,3.22
2023-03-05T01:41:30.127Z,3.21
2023-03-05T01:44:35.276Z,3.13
2023-03-05T01:47:39.526Z,3.22
2023-03-05T01:50:42.135Z,3.14
2023-03-05T01:53:45.227Z,3.07
2023-03-05T01:56:50.179Z,2.99
2023-03-05T01:59:57.840Z,2.92
2023-03-05T02:03:05.540Z,2.88
2023-03-05T02:06:08.203Z,2.97
2023-03-05T02:09:10.770Z,3.01
2023-03-05T02:12:14.916Z,3.07
2023-03-05T02:15:19.233Z,3.13
2023-03-05T02:18:22.095Z,3.24
2023-03-05T02:21:35.631Z,3.31
2023-03-05T02:24:38.308Z,3.21
2023-03-05T02:27:44.673Z,3.33
2023-03-05T02:30:47.342Z,3.34
2023-03-05T02:33:51.150Z,3.43
2023-03-05T02:36:55.586Z,3.40
2023-03-05T02:39:58.704Z,3.59
2023-03-05T02:43:02.192Z,3.58
2023-03-05T02:46:06.223Z,3.75
2023-03-05T02:49:08.574Z,3.74
2023-03-05T02:52:11.582Z,3.77
2023-03-05T02:55:13.917Z,3.80
2023-03-05T02:58:17.080Z,3.80
2023-03-05T03:01:19.690Z,3.71
2023-03-05T03:04:22.531Z,3.80
2023-03-05T03:07:24.794Z,3.73
2023-03-05T03:10:27.696Z,3.80
2023-03-05T03:13:29.952Z,3.68
2023-03-05T03:16:33.752Z,3.68
2023-03-05T03:19:36.884Z,3.79
2023-03-05T03:22:40.700Z,3.75
2023-03-05T03:25:43.071Z,3.80
2023-03-05T03:28:45.905Z,3.93
2023-03-05T03:31:48.656Z,3.72
2023-03-05T03:34:51.538Z,3.73
2023-03-05T03:37:54.081Z,3.68
2023-03-05T03:40:56.633Z,3.58
2023-03-05T03:43:59.181Z,3.60
2023-03-05T03:47:02.136Z,3.74
2023-03-05T03:50:05.261Z,3.69
2023-03-05T03:53:09.466Z,3.62
2023-03-05T03:56:12.530Z,3.74
2023-03-05T03:59:15.554Z,3.75
2023-03-05T04:02:18.028Z,3.53
2023-03-05T04:05:20.676Z,3.64
2023-03-05T04:08:23.026Z,3.68
2023-03-05T04:11:26.443Z,3.40
2023-03-05T04:14:28.719Z,3.36
2023-03-05T04:17:32.699Z,3.36
2023-03-05T04:20:34.983Z,3.52
2023-03-05T04:23:38.349Z,3.68
2023-03-05T04:26:40.947Z,3.62
2023-03-05T04:29:43.576Z,3.67
2023-03-05T04:32:46.155Z,3.47
2023-03-05T04:35:48.819Z,3.41
2023-03-05T04:38:51.544Z,3.55
2023-03-05T04:41:54.081Z,3.35
2023-03-05T04:44:56.682Z,3.40
2023-03-05T04:47:59.430Z,3.60
2023-03-05T04:51:01.793Z,3.80
2023-03-05T04:54:04.815Z,3.58
2023-03-05T04:57:07.758Z,3.60
2023-03-05T05:00:16.764Z,3.84
2023-03-05T05:03:19.359Z,3.87
2023-03-05T05:06:22.163Z,4.04
2023-03-05T05:09:25.373Z,4.00
2023-03-05T05:12:31.183Z,4.05
2023-03-05T05:15:33.989Z,4.25
2023-03-05T05:18:36.616Z,4.24
2023-03-05T05:21:39.286Z,4.17
2023-03-05T05:24:42.097Z,4.20
2023-03-05T05:27:44.417Z,4.28
2023-03-05T05:30:47.066Z,4.37
2023-03-05T05:33:49.983Z,4.32
2023-03-05T05:36:53.377Z,4.39
2023-03-05T05:39:55.702Z,4.22
2023-03-05T05:42:58.354Z,4.20
2023-03-05T05:46:06.082Z,4.23
2023-03-05T05:49:08.924Z,4.30
2023-03-05T05:52:11.447Z,4.36
2023-03-05T05:55:14.348Z,4.35
2023-03-05T05:58:16.847Z,4.06
2023-03-05T06:01:30.816Z,4.23
2023-03-05T06:04:35.044Z,4.13
2023-03-05T06:07:37.507Z,4.22
2023-03-05T06:10:39.973Z,4.26
2023-03-05T06:13:42.500Z,4.25
2023-03-05T06:16:45.375Z,4.43
2023-03-05T06:19:47.875Z,4.49
2023-03-05T06:22:50.380Z,4.53
2023-03-05T06:25:53.406Z,4.30
2023-03-05T06:28:57.433Z,4.44
2023-03-05T06:32:00.053Z,4.36
2023-03-05T06:35:03.083Z,4.56
2023-03-05T06:38:06.987Z,4.58
2023-03-05T06:41:15.586Z,4.50
2023-03-05T06:44:18.153Z,4.70
2023-03-05T06:47:21.049Z,4.78
2023-03-05T06:50:23.600Z,4.82
2023-03-05T06:53:26.599Z,4.64
2023-03-05T06:56:29.113Z,4.83
2023-03-05T06:59:31.590Z,4.93
2023-03-05T07:02:34.192Z,4.83
2023-03-05T07:05:40.935Z,4.75
2023-03-05T07:08:44.835Z,5.10
2023-03-05T07:11:47.638Z,5.25
2023-03-05T07:14:50.641Z,5.19
2023-03-05T07:17:53.095Z,5.33
2023-03-05T07:20:55.466Z,5.38
2023-03-05T07:23:59.868Z,5.31
2023-03-05T07:27:02.260Z,5.07
2023-03-05T07:30:06.410Z,5.33
2023-03-05T07:33:08.737Z,5.33
2023-03-05T07:36:13.372Z,5.65
2023-03-05T07:39:15.598Z,5.59
2023-03-05T07:42:18.533Z,5.65
2023-03-05T07:45:22.195Z,5.70
2023-03-05T07:48:25.193Z,5.84
2023-03-05T07:51:27.812Z,5.93
2023-03-05T07:54:31.135Z,5.87
2023-03-05T07:57:35.471Z,5.92
2023-03-05T08:00:38.512Z,6.06
2023-03-05T08:03:41.922Z,6.05
2023-03-05T08:06:44.337Z,6.03
2023-03-05T08:09:46.938Z,6.15
2023-03-05T08:12:49.227Z,6.37
2023-03-05T08:15:52.179Z,6.46
2023-03-05T08:18:57.334Z,6.64
2023-03-05T08:22:00.143Z,6.49
2023-03-05T08:25:05.097Z,6.45
2023-03-05T08:28:07.636Z,6.49
2023-03-05T08:31:14.363Z,6.78
2023-03-05T08:34:17.304Z,7.05
2023-03-05T08:37:19.649Z,7.12
2023-03-05T08:40:22.535Z,7.31
2023-03-05T08:43:24.820Z,7.44
2023-03-05T08:46:27.365Z,7.48
2023-03-05T08:49:29.690Z,7.41
2023-03-05T08:52:32.567Z,7.42
2023-03-05T08:55:34.883Z,7.39
2023-03-05T08:58:38.006Z,6.98
2023-03-05T09:01:40.375Z,6.84
2023-03-05T09:04:42.904Z,6.79
2023-03-05T09:07:45.784Z,6.99
2023-03-05T09:10:48.318Z,7.23
2023-03-05T09:13:50.999Z,7.19
2023-03-05T09:16:58.165Z,7.06
2023-03-05T09:20:01.445Z,7.11
2023-03-05T09:23:04.886Z,7.45
2023-03-05T09:26:12.147Z,7.79
2023-03-05T09:29:14.791Z,7.58
2023-03-05T09:32:17.294Z,7.56
2023-03-05T09:35:19.970Z,7.76
2023-03-05T09:38:22.537Z,7.49
2023-03-05T09:41:34.474Z,7.39
2023-03-05T09:44:56.625Z,7.30
2023-03-05T09:48:24.689Z,7.66
2023-03-05T09:51:35.025Z,8.08
2023-03-05T09:54:42.194Z,8.33
2023-03-05T09:57:51.626Z,8.38
2023-03-05T10:01:24.153Z,8.02
2023-03-05T10:04:48.889Z,7.96
2023-03-05T10:08:05.007Z,8.13
2023-03-05T10:11:22.439Z,8.04
2023-03-05T10:14:32.134Z,8.01
2023-03-05T10:18:12.758Z,7.94
2023-03-05T10:21:47.039Z,8.12
2023-03-05T10:24:55.287Z,8.07
2023-03-05T10:28:07.774Z,7.96
2023-03-05T10:31:41.647Z,7.93
2023-03-05T10:34:50.345Z,7.68
2023-03-05T10:38:11.785Z,7.68
2023-03-05T10:41:45.139Z,7.83
2023-03-05T10:44:52.700Z,7.78
2023-03-05T10:48:20.042Z,7.97
2023-03-05T10:51:53.938Z,8.05
2023-03-05T10:54:56.183Z,8.26
2023-03-05T10:57:58.990Z,8.50
2023-03-05T11:01:10.261Z,8.48
2023-03-05T11:04:32.005Z,8.30
2023-03-05T11:07:38.138Z,8.05
2023-03-05T11:10:41.023Z,7.73
2023-03-05T11:14:02.265Z,7.82
2023-03-05T11:17:27.509Z,7.78
2023-03-05T11:20:35.394Z,7.56
2023-03-05T11:23:38.623Z,7.82
2023-03-05T11:26:52.249Z,7.84
2023-03-05T11:29:55.066Z,7.52
2023-03-05T11:33:24.531Z,7.26
2023-03-05T11:36:36.117Z,7.65
2023-03-05T11:39:40.225Z,7.85
2023-03-05T11:42:44.086Z,7.38
2023-03-05T11:45:49.066Z,7.29
2023-03-05T11:48:54.469Z,7.24
2023-03-05T11:52:18.276Z,7.70
2023-03-05T11:55:47.256Z,7.94
2023-03-05T11:59:13.771Z,8.06
2023-03-05T12:02:23.255Z,7.97
2023-03-05T12:05:28.850Z,7.62
2023-03-05T12:08:35.543Z,7.58
2023-03-05T12:11:38.649Z,7.91
2023-03-05T12:14:51.236Z,7.89
2023-03-05T12:17:59.637Z,8.37
2023-03-05T12:21:07.168Z,8.62
2023-03-05T12:24:28.002Z,8.55
2023-03-05T12:27:36.856Z,8.62
2023-03-05T12:30:42.817Z,8.60
2023-03-05T12:33:45.453Z,8.53
2023-03-05T12:36:48.801Z,8.51
2023-03-05T12:40:20.553Z,8.52
2023-03-05T12:43:32.796Z,8.71
2023-03-05T12:46:37.962Z,8.73
2023-03-05T12:49:44.207Z,8.82
2023-03-05T12:52:46.594Z,9.02
2023-03-05T12:56:01.529Z,9.00
2023-03-05T12:59:04.290Z,9.23
2023-03-05T13:02:20.637Z,9.29
2023-03-05T13:05:39.386Z,9.26
2023-03-05T13:08:42.592Z,9.27
2023-03-05T13:11:49.007Z,9.31
2023-03-05T13:15:06.470Z,8.80
2023-03-05T13:18:19.207Z,8.31
2023-03-05T13:21:30.778Z,7.98
2023-03-05T13:24:33.991Z,8.13
2023-03-05T13:27:39.486Z,7.67
2023-03-05T13:30:53.205Z,7.80
2023-03-05T13:34:08.841Z,7.33
2023-03-05T13:37:22.490Z,7.57
2023-03-05T13:40:29.358Z,7.44
2023-03-05T13:43:31.896Z,7.48
2023-03-05T13:46:34.329Z,7.43
2023-03-05T13:49:36.619Z,7.31
2023-03-05T13:52:39.272Z,7.48
2023-03-05T13:55:41.560Z,7.45
2023-03-05T13:58:48.303Z,7.29
2023-03-05T14:01:52.932Z,7.48
2023-03-05T14:04:56.004Z,7.14
2023-03-05T14:07:58.657Z,7.30
2023-03-05T14:11:13.406Z,7.22
2023-03-05T14:14:19.041Z,7.16
2023-03-05T14:17:27.801Z,7.16
2023-03-05T14:20:31.697Z,7.36
2023-03-05T14:23:41.005Z,7.22
2023-03-05T14:26:56.527Z,7.22
2023-03-05T14:29:59.433Z,7.18
2023-03-05T14:33:02.848Z,7.00
2023-03-05T14:36:06.229Z,6.94
2023-03-05T14:39:32.020Z,6.94
2023-03-05T14:42:41.261Z,6.93
2023-03-05T14:45:44.172Z,6.87
2023-03-05T14:48:47.013Z,6.95
2023-03-05T14:51:49.234Z,7.19
2023-03-05T14:54:52.486Z,7.04
2023-03-05T14:58:01.242Z,6.98
2023-03-05T15:01:03.888Z,7.11
2023-03-05T15:04:06.421Z,7.07
2023-03-05T15:07:16.684Z,7.02
2023-03-05T15:10:21.643Z,6.88
2023-03-05T15:13:24.535Z,6.96
2023-03-05T15:16:27.119Z,6.91
2023-03-05T15:19:29.682Z,7.13
2023-03-05T15:22:31.979Z,7.14
2023-03-05T15:25:35.346Z,6.90
2023-03-05T15:28:39.347Z,6.94
2023-03-05T15:31:41.924Z,6.84
2023-03-05T15:34:44.056Z,6.87
2023-03-05T15:37:46.611Z,6.88
2023-03-05T15:40:50.149Z,6.79
2023-03-05T15:43:52.688Z,6.62
2023-03-05T15:46:56.671Z,6.72
2023-03-05T15:49:59.629Z,6.41
2023-03-05T15:53:02.185Z,6.53
2023-03-05T15:56:05.037Z,6.33
2023-03-05T15:59:09.377Z,6.45
2023-03-05T16:02:12.603Z,6.27
2023-03-05T16:05:15.200Z,6.15
2023-03-05T16:08:17.381Z,6.37
2023-03-05T16:11:20.632Z,6.42
2023-03-05T16:14:26.048Z,6.22
2023-03-05T16:17:28.673Z,6.07
2023-03-05T16:20:30.986Z,5.91
2023-03-05T16:23:33.688Z,5.68
2023-03-05T16:26:37.189Z,5.85
2023-03-05T16:29:40.363Z,5.65
2023-03-05T16:32:42.951Z,5.48
2023-03-05T16:35:45.917Z,5.41
2023-03-05T16:38:53.066Z,5.35
2023-03-05T16:41:55.659Z,5.27
2023-03-05T16:45:01.695Z,5.24
2023-03-05T16:48:04.825Z,5.08
2023-03-05T16:51:07.335Z,5.02
2023-03-05T16:54:10.293Z,4.91
2023-03-05T16:57:12.706Z,4.90
2023-03-05T17:00:17.144Z,4.87
2023-03-05T17:03:20.432Z,4.89
2023-03-05T17:06:25.798Z,4.97
2023-03-05T17:09:28.416Z,4.93
2023-03-05T17:12:31.018Z,4.90
2023-03-05T17:15:34.032Z,5.04
2023-03-05T17:18:36.936Z,4.96
2023-03-05T17:21:41.988Z,4.93
2023-03-05T17:24:47.176Z,4.91
2023-03-05T17:27:49.449Z,4.80
2023-03-05T17:30:52.078Z,4.59
2023-03-05T17:33:55.842Z,4.41
2023-03-05T17:36:58.553Z,4.44
2023-03-05T17:40:01.088Z,4.42
2023-03-05T17:43:04.548Z,4.50
2023-03-05T17:46:07.517Z,4.44
2023-03-05T17:49:10.187Z,4.40
2023-03-05T17:52:12.669Z,4.42
2023-03-05T17:55:17.268Z,4.33
2023-03-05T17:58:19.633Z,4.42
2023-03-05T18:01:31.370Z,4.38
2023-03-05T18:04:34.548Z,4.55
2023-03-05T18:07:38.089Z,4.44
2023-03-05T18:10:41.137Z,4.49
2023-03-05T18:13:43.370Z,4.50
2023-03-05T18:16:46.588Z,4.54
2023-03-05T18:19:49.867Z,4.44
2023-03-05T18:22:52.959Z,4.46
2023-03-05T18:25:55.258Z,4.55
2023-03-05T18:28:58.126Z,4.48
2023-03-05T18:32:00.601Z,4.55
2023-03-05T18:35:03.690Z,4.61
2023-03-05T18:38:05.836Z,4.67
2023-03-05T18:41:08.615Z,4.50
2023-03-05T18:44:11.376Z,4.58
2023-03-05T18:47:13.897Z,4.47
2023-03-05T18:50:18.577Z,4.47
2023-03-05T18:53:22.308Z,4.51
2023-03-05T18:56:25.481Z,4.41
2023-03-05T18:59:29.610Z,4.41
2023-03-05T19:02:34.344Z,4.50
2023-03-05T19:05:38.218Z,4.48
2023-03-05T19:08:40.489Z,4.45
2023-03-05T19:11:43.070Z,4.49
2023-03-05T19:14:46.125Z,4.33
2023-03-05T19:17:49.485Z,4.29
2023-03-05T19:20:58.499Z,4.19
2023-03-05T19:24:01.073Z,4.26
2023-03-05T19:27:10.241Z,4.31
2023-03-05T19:30:13.847Z,4.24
2023-03-05T19:33:16.924Z,4.41
2023-03-05T19:36:19.417Z,4.38
2023-03-05T19:39:21.604Z,4.35
2023-03-05T19:42:24.086Z,4.04
2023-03-05T19:45:26.588Z,4.13
2023-03-05T19:48:30.439Z,4.19
2023-03-05T19:51:32.828Z,4.25
2023-03-05T19:54:35.732Z,4.11
2023-03-05T19:57:38.021Z,4.13
2023-03-05T20:00:40.918Z,4.13
2023-03-05T20:03:48.439Z,3.94
2023-03-05T20:06:51.352Z,3.98
2023-03-05T20:09:55.529Z,4.13
2023-03-05T20:12:57.953Z,4.05
2023-03-05T20:16:01.113Z,3.92
2023-03-05T20:19:05.905Z,3.89
2023-03-05T20:22:09.202Z,3.94
2023-03-05T20:25:13.833Z,4.03
2023-03-05T20:28:16.439Z,4.00
2023-03-05T20:31:21.233Z,4.03
2023-03-05T20:34:23.920Z,4.00
2023-03-05T20:38:22.638Z,3.94
2023-03-05T20:41:25.219Z,3.98
2023-03-05T20:44:27.559Z,4.12
2023-03-05T20:47:44.966Z,3.99
2023-03-05T20:50:47.582Z,3.75
2023-03-05T20:53:58.004Z,3.73
2023-03-05T20:57:00.282Z,3.82
2023-03-05T21:00:04.043Z,3.87
2023-03-05T21:03:07.217Z,3.87
2023-03-05T21:06:09.858Z,3.82
2023-03-05T21:09:12.363Z,3.82
2023-03-05T21:12:14.862Z,3.64
2023-03-05T21:15:20.341Z,3.61
2023-03-05T21:18:23.681Z,3.57
2023-03-05T21:21:26.122Z,3.50
2023-03-05T21:25:23.049Z,3.41
2023-03-05T21:28:25.753Z,3.42
2023-03-05T21:31:28.648Z,3.55
2023-03-05T21:34:31.359Z,3.59
2023-03-05T21:37:34.817Z,3.47
2023-03-05T21:40:39.961Z,3.38
2023-03-05T21:43:43.435Z,3.47
2023-03-05T21:46:45.687Z,3.45
2023-03-05T21:49:48.532Z,3.55
2023-03-05T21:52:51.876Z,3.54
2023-03-05T21:56:25.797Z,3.52
2023-03-05T21:59:28.471Z,3.54
2023-03-05T22:02:32.115Z,3.64
2023-03-05T22:05:34.944Z,3.52
2023-03-05T22:08:37.252Z,3.50
2023-03-05T22:11:44.102Z,3.52
2023-03-05T22:14:46.402Z,3.64
2023-03-05T22:17:49.581Z,3.76
2023-03-05T22:20:53.264Z,3.82
2023-03-05T22:23:59.484Z,3.66
2023-03-05T22:27:01.956Z,3.71
2023-03-05T22:30:06.918Z,3.73
2023-03-05T22:33:09.684Z,3.71
2023-03-05T22:36:13.955Z,3.59
2023-03-05T22:39:16.329Z,3.39
2023-03-05T22:42:18.990Z,3.34
2023-03-05T22:45:22.139Z,3.48
2023-03-05T22:48:25.004Z,3.45
2023-03-05T22:51:27.432Z,3.28
2023-03-05T22:54:30.475Z,3.58
2023-03-05T22:57:33.445Z,3.39
2023-03-05T23:00:37.551Z,3.42
2023-03-05T23:03:41.413Z,3.43
2023-03-05T23:07:02.472Z,3.41
2023-03-05T23:10:15.131Z,3.35
2023-03-05T23:13:17.537Z,3.44
2023-03-05T23:16:20.127Z,3.53
2023-03-05T23:19:22.259Z,3.38
2023-03-05T23:22:25.150Z,3.39
2023-03-05T23:25:30.344Z,3.44
2023-03-05T23:28:33.136Z,3.35
2023-03-05T23:31:35.414Z,3.30
2023-03-05T23:34:37.903Z,3.31
2023-03-05T23:37:41.426Z,3.41
2023-03-05T23:40:49.678Z,3.32
2023-03-05T23:43:52.184Z,3.36
2023-03-05T23:46:54.760Z,3.35
2023-03-05T23:49:57.053Z,3.40
2023-03-05T23:53:02.228Z,3.39
2023-03-05T23:56:11.525Z,3.38
2023-03-05T23:59:14.179Z,3.34
